sensor_id;sensor_type;location;lat;lon;timestamp;P1;durP1;ratioP1;P2;durP2;ratioP2
18084;SDS011;9169;44.492;11.372;2023-11-21T00:01:27;78.70;;;36.60;;
18084;SDS011;9169;44.492;11.372;2023-11-21T00:03:55;73.23;;;37.37;;
18084;SDS011;9169;44.492;11.372;2023-11-21T00:32:38;77.70;;;38.70;;
18084;SDS011;9169;44.492;11.372;2023-11-21T00:35:07;71.07;;;37.00;;
18084;SDS011;9169;44.492;11.372;2023-11-21T00:37:36;75.57;;;39.10;;
18084;SDS011;9169;44.492;11.372;2023-11-21T00:40:06;73.93;;;37.80;;
18084;SDS011;9169;44.492;11.372;2023-11-21T00:42:35;81.30;;;39.73;;
18084;SDS011;9169;44.492;11.372;2023-11-21T00:45:05;77.37;;;40.47;;
18084;SDS011;9169;44.492;11.372;2023-11-21T00:47:35;75.53;;;38.27;;
18084;SDS011;9169;44.492;11.372;2023-11-21T00:50:05;75.00;;;38.50;;
18084;SDS011;9169;44.492;11.372;2023-11-21T00:52:34;81.83;;;40.63;;
18084;SDS011;9169;44.492;11.372;2023-11-21T00:55:03;72.70;;;37.43;;
18084;SDS011;9169;44.492;11.372;2023-11-21T00:57:34;80.20;;;40.10;;
18084;SDS011;9169;44.492;11.372;2023-11-21T01:00:02;74.83;;;38.73;;
18084;SDS011;9169;44.492;11.372;2023-11-21T01:02:37;73.80;;;36.63;;
18084;SDS011;9169;44.492;11.372;2023-11-21T01:05:07;75.50;;;37.07;;
18084;SDS011;9169;44.492;11.372;2023-11-21T01:07:36;74.53;;;37.50;;
18084;SDS011;9169;44.492;11.372;2023-11-21T01:10:05;73.57;;;37.10;;
18084;SDS011;9169;44.492;11.372;2023-11-21T01:12:34;80.33;;;39.30;;
18084;SDS011;9169;44.492;11.372;2023-11-21T01:15:04;74.83;;;39.37;;
18084;SDS011;9169;44.492;11.372;2023-11-21T01:17:35;74.07;;;38.60;;
18084;SDS011;9169;44.492;11.372;2023-11-21T01:20:04;76.03;;;39.30;;
18084;SDS011;9169;44.492;11.372;2023-11-21T01:22:39;88.50;;;41.03;;
18084;SDS011;9169;44.492;11.372;2023-11-21T01:25:08;75.00;;;39.23;;
18084;SDS011;9169;44.492;11.372;2023-11-21T01:27:37;72.87;;;38.60;;
18084;SDS011;9169;44.492;11.372;2023-11-21T01:30:06;80.07;;;42.10;;
18084;SDS011;9169;44.492;11.372;2023-11-21T01:32:37;76.07;;;39.80;;
18084;SDS011;9169;44.492;11.372;2023-11-21T01:35:06;77.67;;;41.10;;
18084;SDS011;9169;44.492;11.372;2023-11-21T01:37:36;79.10;;;40.63;;
18084;SDS011;9169;44.492;11.372;2023-11-21T01:40:07;81.97;;;42.53;;
18084;SDS011;9169;44.492;11.372;2023-11-21T01:42:40;78.40;;;41.23;;
18084;SDS011;9169;44.492;11.372;2023-11-21T01:45:10;79.53;;;40.03;;
18084;SDS011;9169;44.492;11.372;2023-11-21T01:47:39;80.40;;;42.27;;
18084;SDS011;9169;44.492;11.372;2023-11-21T01:50:09;82.10;;;43.67;;
18084;SDS011;9169;44.492;11.372;2023-11-21T01:52:45;82.70;;;43.53;;
18084;SDS011;9169;44.492;11.372;2023-11-21T01:55:16;83.97;;;42.00;;
18084;SDS011;9169;44.492;11.372;2023-11-21T01:57:53;82.17;;;41.77;;
18084;SDS011;9169;44.492;11.372;2023-11-21T02:00:22;78.77;;;41.10;;
18084;SDS011;9169;44.492;11.372;2023-11-21T02:02:52;79.07;;;39.97;;
18084;SDS011;9169;44.492;11.372;2023-11-21T02:05:21;81.27;;;41.13;;
18084;SDS011;9169;44.492;11.372;2023-11-21T02:07:51;74.37;;;39.13;;
18084;SDS011;9169;44.492;11.372;2023-11-21T02:10:20;78.53;;;40.93;;
18084;SDS011;9169;44.492;11.372;2023-11-21T02:12:49;81.40;;;41.53;;
18084;SDS011;9169;44.492;11.372;2023-11-21T02:15:18;81.20;;;40.97;;
18084;SDS011;9169;44.492;11.372;2023-11-21T02:17:48;79.83;;;41.17;;
18084;SDS011;9169;44.492;11.372;2023-11-21T02:20:18;76.60;;;39.73;;
18084;SDS011;9169;44.492;11.372;2023-11-21T02:22:51;75.00;;;40.10;;
18084;SDS011;9169;44.492;11.372;2023-11-21T02:25:24;76.67;;;39.50;;
18084;SDS011;9169;44.492;11.372;2023-11-21T02:27:54;80.77;;;39.23;;
18084;SDS011;9169;44.492;11.372;2023-11-21T02:30:23;75.83;;;37.37;;
18084;SDS011;9169;44.492;11.372;2023-11-21T02:32:52;78.37;;;40.40;;
18084;SDS011;9169;44.492;11.372;2023-11-21T02:35:21;76.57;;;40.93;;
18084;SDS011;9169;44.492;11.372;2023-11-21T02:37:51;76.10;;;39.90;;
18084;SDS011;9169;44.492;11.372;2023-11-21T02:40:20;76.60;;;38.83;;
18084;SDS011;9169;44.492;11.372;2023-11-21T02:42:48;76.90;;;38.90;;
18084;SDS011;9169;44.492;11.372;2023-11-21T02:45:19;78.10;;;39.80;;
18084;SDS011;9169;44.492;11.372;2023-11-21T02:47:48;73.47;;;36.80;;
18084;SDS011;9169;44.492;11.372;2023-11-21T02:50:17;75.70;;;37.60;;
18084;SDS011;9169;44.492;11.372;2023-11-21T02:52:46;79.63;;;37.43;;
18084;SDS011;9169;44.492;11.372;2023-11-21T02:55:17;79.43;;;39.57;;
18084;SDS011;9169;44.492;11.372;2023-11-21T02:57:45;74.97;;;37.23;;
18084;SDS011;9169;44.492;11.372;2023-11-21T03:00:14;78.30;;;37.20;;
18084;SDS011;9169;44.492;11.372;2023-11-21T03:02:44;82.37;;;37.67;;
18084;SDS011;9169;44.492;11.372;2023-11-21T03:05:14;74.73;;;38.57;;
18084;SDS011;9169;44.492;11.372;2023-11-21T03:07:42;77.80;;;37.33;;
18084;SDS011;9169;44.492;11.372;2023-11-21T03:10:11;79.80;;;38.50;;
18084;SDS011;9169;44.492;11.372;2023-11-21T03:12:41;76.60;;;39.90;;
18084;SDS011;9169;44.492;11.372;2023-11-21T03:15:11;82.40;;;39.67;;
18084;SDS011;9169;44.492;11.372;2023-11-21T03:17:39;85.17;;;40.50;;
18084;SDS011;9169;44.492;11.372;2023-11-21T03:20:09;80.60;;;40.80;;
18084;SDS011;9169;44.492;11.372;2023-11-21T03:22:38;81.93;;;40.97;;
18084;SDS011;9169;44.492;11.372;2023-11-21T03:25:07;80.77;;;39.43;;
18084;SDS011;9169;44.492;11.372;2023-11-21T03:27:38;78.50;;;38.17;;
18084;SDS011;9169;44.492;11.372;2023-11-21T03:30:08;77.70;;;40.77;;
18084;SDS011;9169;44.492;11.372;2023-11-21T03:32:38;83.47;;;39.87;;
18084;SDS011;9169;44.492;11.372;2023-11-21T03:35:07;74.87;;;38.43;;
18084;SDS011;9169;44.492;11.372;2023-11-21T03:37:36;79.50;;;39.90;;
18084;SDS011;9169;44.492;11.372;2023-11-21T03:40:08;82.17;;;41.80;;
18084;SDS011;9169;44.492;11.372;2023-11-21T03:42:38;79.10;;;41.00;;
18084;SDS011;9169;44.492;11.372;2023-11-21T03:45:09;86.87;;;41.17;;
18084;SDS011;9169;44.492;11.372;2023-11-21T03:47:39;82.83;;;40.23;;
18084;SDS011;9169;44.492;11.372;2023-11-21T03:50:09;83.37;;;39.13;;
18084;SDS011;9169;44.492;11.372;2023-11-21T03:52:37;77.00;;;40.00;;
18084;SDS011;9169;44.492;11.372;2023-11-21T03:55:06;79.40;;;40.63;;
18084;SDS011;9169;44.492;11.372;2023-11-21T03:57:39;79.17;;;40.30;;
18084;SDS011;9169;44.492;11.372;2023-11-21T04:00:10;76.03;;;38.57;;
18084;SDS011;9169;44.492;11.372;2023-11-21T04:02:39;77.23;;;39.00;;
18084;SDS011;9169;44.492;11.372;2023-11-21T04:05:08;80.93;;;38.90;;
18084;SDS011;9169;44.492;11.372;2023-11-21T04:07:36;81.40;;;39.23;;
18084;SDS011;9169;44.492;11.372;2023-11-21T04:10:06;79.23;;;40.13;;
18084;SDS011;9169;44.492;11.372;2023-11-21T04:12:36;81.00;;;41.60;;
18084;SDS011;9169;44.492;11.372;2023-11-21T04:15:04;80.77;;;39.50;;
18084;SDS011;9169;44.492;11.372;2023-11-21T04:17:37;82.87;;;40.20;;
18084;SDS011;9169;44.492;11.372;2023-11-21T04:20:06;72.73;;;38.17;;
18084;SDS011;9169;44.492;11.372;2023-11-21T04:22:36;75.93;;;38.43;;
18084;SDS011;9169;44.492;11.372;2023-11-21T04:25:08;78.50;;;40.50;;
18084;SDS011;9169;44.492;11.372;2023-11-21T04:27:39;74.87;;;39.00;;
18084;SDS011;9169;44.492;11.372;2023-11-21T04:30:10;76.70;;;39.60;;
18084;SDS011;9169;44.492;11.372;2023-11-21T04:32:41;76.80;;;38.10;;
18084;SDS011;9169;44.492;11.372;2023-11-21T04:35:10;75.30;;;38.47;;
18084;SDS011;9169;44.492;11.372;2023-11-21T04:37:38;74.27;;;37.90;;
18084;SDS011;9169;44.492;11.372;2023-11-21T04:40:07;76.47;;;39.30;;
18084;SDS011;9169;44.492;11.372;2023-11-21T04:42:37;76.37;;;37.83;;
18084;SDS011;9169;44.492;11.372;2023-11-21T04:45:06;74.33;;;38.03;;
18084;SDS011;9169;44.492;11.372;2023-11-21T04:47:38;71.27;;;36.47;;
18084;SDS011;9169;44.492;11.372;2023-11-21T04:50:08;76.73;;;37.80;;
18084;SDS011;9169;44.492;11.372;2023-11-21T04:52:37;77.80;;;38.43;;
18084;SDS011;9169;44.492;11.372;2023-11-21T04:55:06;74.20;;;37.70;;
18084;SDS011;9169;44.492;11.372;2023-11-21T04:57:36;75.87;;;38.23;;
18084;SDS011;9169;44.492;11.372;2023-11-21T05:00:05;76.10;;;37.53;;
18084;SDS011;9169;44.492;11.372;2023-11-21T05:02:36;77.20;;;39.80;;
18084;SDS011;9169;44.492;11.372;2023-11-21T05:05:05;76.33;;;38.27;;
18084;SDS011;9169;44.492;11.372;2023-11-21T05:07:37;76.73;;;38.70;;
18084;SDS011;9169;44.492;11.372;2023-11-21T05:10:06;78.50;;;38.90;;
18084;SDS011;9169;44.492;11.372;2023-11-21T05:12:39;73.77;;;38.37;;
18084;SDS011;9169;44.492;11.372;2023-11-21T05:15:09;76.27;;;37.83;;
18084;SDS011;9169;44.492;11.372;2023-11-21T05:17:41;73.47;;;37.10;;
18084;SDS011;9169;44.492;11.372;2023-11-21T05:20:12;72.30;;;37.03;;
18084;SDS011;9169;44.492;11.372;2023-11-21T05:22:44;73.70;;;37.40;;
18084;SDS011;9169;44.492;11.372;2023-11-21T05:25:13;73.93;;;38.57;;
18084;SDS011;9169;44.492;11.372;2023-11-21T05:27:41;76.30;;;37.47;;
18084;SDS011;9169;44.492;11.372;2023-11-21T05:30:11;76.67;;;37.47;;
18084;SDS011;9169;44.492;11.372;2023-11-21T05:32:40;79.43;;;39.30;;
18084;SDS011;9169;44.492;11.372;2023-11-21T05:35:10;75.80;;;39.27;;
18084;SDS011;9169;44.492;11.372;2023-11-21T05:37:42;76.47;;;38.40;;
18084;SDS011;9169;44.492;11.372;2023-11-21T05:40:12;80.10;;;40.03;;
18084;SDS011;9169;44.492;11.372;2023-11-21T05:42:41;81.03;;;38.50;;
18084;SDS011;9169;44.492;11.372;2023-11-21T05:45:09;76.63;;;37.00;;
18084;SDS011;9169;44.492;11.372;2023-11-21T05:47:38;82.03;;;38.50;;
18084;SDS011;9169;44.492;11.372;2023-11-21T05:50:08;78.50;;;39.77;;
18084;SDS011;9169;44.492;11.372;2023-11-21T05:52:40;76.40;;;39.40;;
18084;SDS011;9169;44.492;11.372;2023-11-21T05:55:10;74.50;;;38.30;;
18084;SDS011;9169;44.492;11.372;2023-11-21T05:57:40;74.13;;;38.80;;
18084;SDS011;9169;44.492;11.372;2023-11-21T06:00:10;77.37;;;37.80;;
18084;SDS011;9169;44.492;11.372;2023-11-21T06:02:45;74.00;;;38.00;;
18084;SDS011;9169;44.492;11.372;2023-11-21T06:05:13;75.63;;;38.77;;
18084;SDS011;9169;44.492;11.372;2023-11-21T06:07:43;79.30;;;38.47;;
18084;SDS011;9169;44.492;11.372;2023-11-21T06:10:12;77.93;;;38.77;;
18084;SDS011;9169;44.492;11.372;2023-11-21T06:12:41;73.60;;;38.30;;
18084;SDS011;9169;44.492;11.372;2023-11-21T06:15:10;75.80;;;37.73;;
18084;SDS011;9169;44.492;11.372;2023-11-21T06:17:41;75.47;;;38.47;;
18084;SDS011;9169;44.492;11.372;2023-11-21T06:20:11;75.73;;;38.63;;
18084;SDS011;9169;44.492;11.372;2023-11-21T06:22:41;77.90;;;39.80;;
18084;SDS011;9169;44.492;11.372;2023-11-21T06:25:12;78.10;;;39.77;;
18084;SDS011;9169;44.492;11.372;2023-11-21T06:27:41;75.60;;;38.40;;
18084;SDS011;9169;44.492;11.372;2023-11-21T06:30:11;75.37;;;38.37;;
18084;SDS011;9169;44.492;11.372;2023-11-21T06:32:41;72.10;;;38.60;;
18084;SDS011;9169;44.492;11.372;2023-11-21T06:35:12;73.33;;;39.50;;
18084;SDS011;9169;44.492;11.372;2023-11-21T06:37:42;78.00;;;42.30;;
18084;SDS011;9169;44.492;11.372;2023-11-21T06:40:14;74.33;;;39.10;;
18084;SDS011;9169;44.492;11.372;2023-11-21T06:42:45;76.03;;;39.73;;
18084;SDS011;9169;44.492;11.372;2023-11-21T06:45:13;73.57;;;40.27;;
18084;SDS011;9169;44.492;11.372;2023-11-21T06:47:43;71.87;;;39.30;;
18084;SDS011;9169;44.492;11.372;2023-11-21T06:50:11;75.90;;;42.20;;
18084;SDS011;9169;44.492;11.372;2023-11-21T06:52:41;78.60;;;40.73;;
18084;SDS011;9169;44.492;11.372;2023-11-21T06:55:11;77.00;;;40.67;;
18084;SDS011;9169;44.492;11.372;2023-11-21T06:57:40;74.83;;;40.43;;
18084;SDS011;9169;44.492;11.372;2023-11-21T07:00:08;74.50;;;38.47;;
18084;SDS011;9169;44.492;11.372;2023-11-21T07:02:38;75.63;;;41.70;;
18084;SDS011;9169;44.492;11.372;2023-11-21T07:05:06;74.07;;;39.33;;
18084;SDS011;9169;44.492;11.372;2023-11-21T07:07:35;78.53;;;41.23;;
18084;SDS011;9169;44.492;11.372;2023-11-21T07:10:06;79.90;;;41.80;;
18084;SDS011;9169;44.492;11.372;2023-11-21T07:12:36;77.20;;;40.03;;
18084;SDS011;9169;44.492;11.372;2023-11-21T07:15:05;81.50;;;39.37;;
18084;SDS011;9169;44.492;11.372;2023-11-21T07:17:35;77.70;;;38.83;;
18084;SDS011;9169;44.492;11.372;2023-11-21T07:20:06;85.40;;;40.27;;
18084;SDS011;9169;44.492;11.372;2023-11-21T07:22:35;75.80;;;36.60;;
18084;SDS011;9169;44.492;11.372;2023-11-21T07:25:05;83.77;;;42.00;;
18084;SDS011;9169;44.492;11.372;2023-11-21T07:27:36;76.60;;;39.20;;
18084;SDS011;9169;44.492;11.372;2023-11-21T07:30:05;76.70;;;38.43;;
18084;SDS011;9169;44.492;11.372;2023-11-21T07:32:36;84.17;;;40.07;;
18084;SDS011;9169;44.492;11.372;2023-11-21T07:35:07;84.17;;;37.93;;
18084;SDS011;9169;44.492;11.372;2023-11-21T07:37:37;84.77;;;37.40;;
18084;SDS011;9169;44.492;11.372;2023-11-21T07:40:07;81.70;;;38.73;;
18084;SDS011;9169;44.492;11.372;2023-11-21T07:42:38;85.00;;;39.43;;
18084;SDS011;9169;44.492;11.372;2023-11-21T07:45:07;84.83;;;38.27;;
18084;SDS011;9169;44.492;11.372;2023-11-21T07:47:36;93.47;;;40.33;;
18084;SDS011;9169;44.492;11.372;2023-11-21T07:50:06;97.30;;;40.50;;
18084;SDS011;9169;44.492;11.372;2023-11-21T07:52:35;87.93;;;39.23;;
18084;SDS011;9169;44.492;11.372;2023-11-21T07:55:04;88.13;;;39.40;;
18084;SDS011;9169;44.492;11.372;2023-11-21T07:57:35;93.67;;;40.97;;
18084;SDS011;9169;44.492;11.372;2023-11-21T08:00:04;94.53;;;41.27;;
18084;SDS011;9169;44.492;11.372;2023-11-21T08:02:38;94.40;;;41.27;;
18084;SDS011;9169;44.492;11.372;2023-11-21T08:05:09;99.13;;;41.83;;
18084;SDS011;9169;44.492;11.372;2023-11-21T08:07:38;103.30;;;43.60;;
18084;SDS011;9169;44.492;11.372;2023-11-21T08:10:09;103.87;;;43.23;;
18084;SDS011;9169;44.492;11.372;2023-11-21T08:12:38;107.30;;;42.00;;
18084;SDS011;9169;44.492;11.372;2023-11-21T08:15:07;102.90;;;43.40;;
18084;SDS011;9169;44.492;11.372;2023-11-21T08:17:37;106.30;;;44.73;;
18084;SDS011;9169;44.492;11.372;2023-11-21T08:20:06;101.53;;;45.80;;
18084;SDS011;9169;44.492;11.372;2023-11-21T08:22:37;114.70;;;46.63;;
18084;SDS011;9169;44.492;11.372;2023-11-21T08:25:09;104.53;;;46.80;;
18084;SDS011;9169;44.492;11.372;2023-11-21T08:27:37;105.27;;;48.10;;
18084;SDS011;9169;44.492;11.372;2023-11-21T08:30:06;108.17;;;50.17;;
18084;SDS011;9169;44.492;11.372;2023-11-21T08:32:35;107.30;;;50.00;;
18084;SDS011;9169;44.492;11.372;2023-11-21T08:35:04;102.90;;;46.73;;
18084;SDS011;9169;44.492;11.372;2023-11-21T08:37:33;98.67;;;46.33;;
18084;SDS011;9169;44.492;11.372;2023-11-21T08:40:04;118.47;;;52.70;;
18084;SDS011;9169;44.492;11.372;2023-11-21T08:42:37;103.97;;;50.00;;
18084;SDS011;9169;44.492;11.372;2023-11-21T08:45:06;100.20;;;50.17;;
18084;SDS011;9169;44.492;11.372;2023-11-21T08:47:35;106.50;;;51.63;;
18084;SDS011;9169;44.492;11.372;2023-11-21T08:50:04;101.40;;;49.57;;
18084;SDS011;9169;44.492;11.372;2023-11-21T08:52:34;100.73;;;49.83;;
18084;SDS011;9169;44.492;11.372;2023-11-21T08:55:04;102.50;;;50.63;;
18084;SDS011;9169;44.492;11.372;2023-11-21T08:57:34;107.10;;;52.80;;
18084;SDS011;9169;44.492;11.372;2023-11-21T09:00:05;101.50;;;52.33;;
18084;SDS011;9169;44.492;11.372;2023-11-21T09:02:37;109.10;;;54.97;;
18084;SDS011;9169;44.492;11.372;2023-11-21T09:05:08;115.53;;;58.47;;
18084;SDS011;9169;44.492;11.372;2023-11-21T09:07:38;115.40;;;60.57;;
18084;SDS011;9169;44.492;11.372;2023-11-21T09:10:08;123.67;;;65.10;;
18084;SDS011;9169;44.492;11.372;2023-11-21T09:12:39;119.30;;;66.47;;
18084;SDS011;9169;44.492;11.372;2023-11-21T09:15:08;125.47;;;69.00;;
18084;SDS011;9169;44.492;11.372;2023-11-21T09:17:38;124.40;;;72.03;;
18084;SDS011;9169;44.492;11.372;2023-11-21T09:20:08;120.43;;;68.17;;
18084;SDS011;9169;44.492;11.372;2023-11-21T09:22:37;121.07;;;66.97;;
18084;SDS011;9169;44.492;11.372;2023-11-21T09:25:06;120.97;;;69.63;;
18084;SDS011;9169;44.492;11.372;2023-11-21T09:27:36;122.10;;;68.00;;
18084;SDS011;9169;44.492;11.372;2023-11-21T09:30:07;123.90;;;69.30;;
18084;SDS011;9169;44.492;11.372;2023-11-21T09:32:37;127.20;;;68.87;;
18084;SDS011;9169;44.492;11.372;2023-11-21T09:35:07;128.70;;;68.40;;
18084;SDS011;9169;44.492;11.372;2023-11-21T09:37:36;123.40;;;66.70;;
18084;SDS011;9169;44.492;11.372;2023-11-21T09:40:06;123.97;;;67.23;;
18084;SDS011;9169;44.492;11.372;2023-11-21T09:42:40;123.40;;;65.33;;
18084;SDS011;9169;44.492;11.372;2023-11-21T09:45:20;119.83;;;65.33;;
18084;SDS011;9169;44.492;11.372;2023-11-21T09:47:53;120.73;;;64.37;;
18084;SDS011;9169;44.492;11.372;2023-11-21T09:50:23;127.10;;;67.83;;
18084;SDS011;9169;44.492;11.372;2023-11-21T09:53:03;125.20;;;66.20;;
18084;SDS011;9169;44.492;11.372;2023-11-21T09:55:42;120.00;;;64.87;;
18084;SDS011;9169;44.492;11.372;2023-11-21T09:58:11;119.30;;;64.00;;
18084;SDS011;9169;44.492;11.372;2023-11-21T10:00:45;122.50;;;64.90;;
18084;SDS011;9169;44.492;11.372;2023-11-21T10:03:15;127.17;;;67.93;;
18084;SDS011;9169;44.492;11.372;2023-11-21T10:05:44;119.90;;;66.83;;
18084;SDS011;9169;44.492;11.372;2023-11-21T10:08:13;130.17;;;69.83;;
18084;SDS011;9169;44.492;11.372;2023-11-21T10:10:43;131.33;;;65.77;;
18084;SDS011;9169;44.492;11.372;2023-11-21T10:13:14;130.70;;;73.57;;
18084;SDS011;9169;44.492;11.372;2023-11-21T10:15:45;139.97;;;72.60;;
18084;SDS011;9169;44.492;11.372;2023-11-21T10:18:19;129.83;;;70.60;;
18084;SDS011;9169;44.492;11.372;2023-11-21T10:20:49;126.37;;;72.37;;
18084;SDS011;9169;44.492;11.372;2023-11-21T10:23:19;141.37;;;75.20;;
18084;SDS011;9169;44.492;11.372;2023-11-21T10:25:48;131.90;;;73.40;;
18084;SDS011;9169;44.492;11.372;2023-11-21T10:28:18;129.17;;;67.20;;
18084;SDS011;9169;44.492;11.372;2023-11-21T10:30:48;135.17;;;74.20;;
18084;SDS011;9169;44.492;11.372;2023-11-21T10:33:17;139.40;;;75.67;;
18084;SDS011;9169;44.492;11.372;2023-11-21T10:35:54;139.13;;;79.40;;
18084;SDS011;9169;44.492;11.372;2023-11-21T10:38:23;144.70;;;80.90;;
18084;SDS011;9169;44.492;11.372;2023-11-21T10:40:54;145.10;;;78.63;;
18084;SDS011;9169;44.492;11.372;2023-11-21T10:43:24;137.93;;;78.10;;
18084;SDS011;9169;44.492;11.372;2023-11-21T10:45:54;139.80;;;75.17;;
18084;SDS011;9169;44.492;11.372;2023-11-21T10:48:27;137.50;;;75.30;;
18084;SDS011;9169;44.492;11.372;2023-11-21T10:50:55;138.83;;;73.97;;
18084;SDS011;9169;44.492;11.372;2023-11-21T10:53:24;146.17;;;76.57;;
18084;SDS011;9169;44.492;11.372;2023-11-21T10:56:01;144.53;;;74.23;;
18084;SDS011;9169;44.492;11.372;2023-11-21T10:58:33;134.90;;;71.63;;
18084;SDS011;9169;44.492;11.372;2023-11-21T11:01:05;131.97;;;69.83;;
18084;SDS011;9169;44.492;11.372;2023-11-21T11:03:34;127.47;;;66.47;;
18084;SDS011;9169;44.492;11.372;2023-11-21T11:06:04;134.97;;;71.43;;
18084;SDS011;9169;44.492;11.372;2023-11-21T11:08:38;129.73;;;69.93;;
18084;SDS011;9169;44.492;11.372;2023-11-21T11:11:07;121.60;;;60.47;;
18084;SDS011;9169;44.492;11.372;2023-11-21T11:13:39;121.60;;;61.97;;
18084;SDS011;9169;44.492;11.372;2023-11-21T11:16:14;119.30;;;59.43;;
18084;SDS011;9169;44.492;11.372;2023-11-21T11:18:45;108.67;;;52.67;;
18084;SDS011;9169;44.492;11.372;2023-11-21T11:21:22;108.00;;;53.17;;
18084;SDS011;9169;44.492;11.372;2023-11-21T11:24:12;111.87;;;54.60;;
18084;SDS011;9169;44.492;11.372;2023-11-21T11:26:55;107.77;;;51.07;;
18084;SDS011;9169;44.492;11.372;2023-11-21T11:29:32;107.97;;;50.63;;
18084;SDS011;9169;44.492;11.372;2023-11-21T11:32:12;97.63;;;45.43;;
18084;SDS011;9169;44.492;11.372;2023-11-21T11:34:53;96.97;;;44.37;;
18084;SDS011;9169;44.492;11.372;2023-11-21T11:37:29;102.03;;;47.33;;
18084;SDS011;9169;44.492;11.372;2023-11-21T11:39:58;96.77;;;43.83;;
18084;SDS011;9169;44.492;11.372;2023-11-21T11:42:28;105.37;;;46.07;;
18084;SDS011;9169;44.492;11.372;2023-11-21T11:44:58;99.50;;;46.20;;
18084;SDS011;9169;44.492;11.372;2023-11-21T11:47:31;95.40;;;41.90;;
18084;SDS011;9169;44.492;11.372;2023-11-21T11:50:02;101.70;;;45.83;;
18084;SDS011;9169;44.492;11.372;2023-11-21T11:52:36;93.57;;;40.23;;
18084;SDS011;9169;44.492;11.372;2023-11-21T11:55:06;102.97;;;46.80;;
18084;SDS011;9169;44.492;11.372;2023-11-21T11:57:38;89.43;;;39.30;;
18084;SDS011;9169;44.492;11.372;2023-11-21T12:00:08;93.90;;;39.33;;
18084;SDS011;9169;44.492;11.372;2023-11-21T12:02:45;94.70;;;40.77;;
18084;SDS011;9169;44.492;11.372;2023-11-21T12:05:15;87.93;;;38.17;;
18084;SDS011;9169;44.492;11.372;2023-11-21T12:07:46;96.07;;;42.30;;
18084;SDS011;9169;44.492;11.372;2023-11-21T12:10:17;93.67;;;40.60;;
18084;SDS011;9169;44.492;11.372;2023-11-21T12:12:47;93.60;;;39.20;;
18084;SDS011;9169;44.492;11.372;2023-11-21T12:15:16;92.57;;;39.23;;
18084;SDS011;9169;44.492;11.372;2023-11-21T12:17:47;89.37;;;40.17;;
18084;SDS011;9169;44.492;11.372;2023-11-21T12:20:18;90.90;;;38.20;;
18084;SDS011;9169;44.492;11.372;2023-11-21T12:22:48;94.67;;;41.83;;
18084;SDS011;9169;44.492;11.372;2023-11-21T12:25:17;96.23;;;42.30;;
18084;SDS011;9169;44.492;11.372;2023-11-21T12:27:47;90.83;;;40.40;;
18084;SDS011;9169;44.492;11.372;2023-11-21T12:30:17;90.77;;;39.70;;
18084;SDS011;9169;44.492;11.372;2023-11-21T12:32:50;92.27;;;38.60;;
18084;SDS011;9169;44.492;11.372;2023-11-21T12:35:21;91.00;;;38.83;;
18084;SDS011;9169;44.492;11.372;2023-11-21T12:37:51;94.83;;;41.30;;
18084;SDS011;9169;44.492;11.372;2023-11-21T12:40:20;94.10;;;41.10;;
18084;SDS011;9169;44.492;11.372;2023-11-21T12:42:51;95.13;;;41.33;;
18084;SDS011;9169;44.492;11.372;2023-11-21T12:45:20;93.27;;;39.17;;
18084;SDS011;9169;44.492;11.372;2023-11-21T12:47:55;92.57;;;39.47;;
18084;SDS011;9169;44.492;11.372;2023-11-21T12:50:27;92.80;;;40.43;;
18084;SDS011;9169;44.492;11.372;2023-11-21T12:52:59;92.23;;;41.83;;
18084;SDS011;9169;44.492;11.372;2023-11-21T12:55:29;87.50;;;39.80;;
18084;SDS011;9169;44.492;11.372;2023-11-21T12:58:01;92.20;;;40.73;;
18084;SDS011;9169;44.492;11.372;2023-11-21T13:00:36;91.17;;;41.07;;
18084;SDS011;9169;44.492;11.372;2023-11-21T13:03:07;93.47;;;40.83;;
18084;SDS011;9169;44.492;11.372;2023-11-21T13:05:39;94.20;;;42.27;;
18084;SDS011;9169;44.492;11.372;2023-11-21T13:08:09;92.57;;;40.00;;
18084;SDS011;9169;44.492;11.372;2023-11-21T13:10:40;97.70;;;41.73;;
18084;SDS011;9169;44.492;11.372;2023-11-21T13:13:10;97.30;;;40.80;;
18084;SDS011;9169;44.492;11.372;2023-11-21T13:15:47;88.33;;;39.37;;
18084;SDS011;9169;44.492;11.372;2023-11-21T13:18:18;91.73;;;41.30;;
18084;SDS011;9169;44.492;11.372;2023-11-21T13:20:48;90.47;;;39.40;;
18084;SDS011;9169;44.492;11.372;2023-11-21T13:23:17;91.27;;;40.97;;
18084;SDS011;9169;44.492;11.372;2023-11-21T13:25:46;96.73;;;41.57;;
18084;SDS011;9169;44.492;11.372;2023-11-21T13:28:16;94.70;;;40.90;;
18084;SDS011;9169;44.492;11.372;2023-11-21T13:30:47;99.07;;;41.00;;
18084;SDS011;9169;44.492;11.372;2023-11-21T13:33:20;93.70;;;40.40;;
18084;SDS011;9169;44.492;11.372;2023-11-21T13:35:54;97.33;;;41.53;;
18084;SDS011;9169;44.492;11.372;2023-11-21T13:38:23;90.53;;;39.87;;
18084;SDS011;9169;44.492;11.372;2023-11-21T13:40:56;90.40;;;40.33;;
18084;SDS011;9169;44.492;11.372;2023-11-21T13:43:25;96.17;;;40.47;;
18084;SDS011;9169;44.492;11.372;2023-11-21T13:45:55;92.27;;;42.50;;
18084;SDS011;9169;44.492;11.372;2023-11-21T13:48:30;94.43;;;41.83;;
18084;SDS011;9169;44.492;11.372;2023-11-21T13:51:01;96.30;;;41.13;;
18084;SDS011;9169;44.492;11.372;2023-11-21T13:53:39;92.03;;;40.27;;
18084;SDS011;9169;44.492;11.372;2023-11-21T13:56:09;89.60;;;40.07;;
18084;SDS011;9169;44.492;11.372;2023-11-21T13:58:37;89.80;;;39.53;;
18084;SDS011;9169;44.492;11.372;2023-11-21T14:01:13;88.30;;;38.70;;
18084;SDS011;9169;44.492;11.372;2023-11-21T14:04:03;92.40;;;40.10;;
18084;SDS011;9169;44.492;11.372;2023-11-21T14:06:45;96.00;;;42.87;;
18084;SDS011;9169;44.492;11.372;2023-11-21T14:09:16;94.40;;;43.20;;
18084;SDS011;9169;44.492;11.372;2023-11-21T14:11:51;92.37;;;41.97;;
18084;SDS011;9169;44.492;11.372;2023-11-21T14:14:22;92.67;;;40.97;;
18084;SDS011;9169;44.492;11.372;2023-11-21T14:16:52;96.77;;;45.17;;
18084;SDS011;9169;44.492;11.372;2023-11-21T14:19:23;100.50;;;46.10;;
18084;SDS011;9169;44.492;11.372;2023-11-21T14:21:57;97.73;;;44.20;;
18084;SDS011;9169;44.492;11.372;2023-11-21T14:24:25;96.93;;;43.90;;
18084;SDS011;9169;44.492;11.372;2023-11-21T14:26:55;101.17;;;46.97;;
18084;SDS011;9169;44.492;11.372;2023-11-21T14:29:24;101.67;;;47.53;;
18084;SDS011;9169;44.492;11.372;2023-11-21T14:31:54;98.10;;;46.47;;
18084;SDS011;9169;44.492;11.372;2023-11-21T14:34:25;105.03;;;44.47;;
18084;SDS011;9169;44.492;11.372;2023-11-21T14:36:54;99.80;;;45.73;;
18084;SDS011;9169;44.492;11.372;2023-11-21T14:39:22;99.90;;;47.10;;
18084;SDS011;9169;44.492;11.372;2023-11-21T14:41:53;93.23;;;43.30;;
18084;SDS011;9169;44.492;11.372;2023-11-21T14:44:24;104.77;;;49.00;;
18084;SDS011;9169;44.492;11.372;2023-11-21T14:46:59;95.40;;;43.23;;
18084;SDS011;9169;44.492;11.372;2023-11-21T14:49:33;102.73;;;43.60;;
18084;SDS011;9169;44.492;11.372;2023-11-21T14:52:16;97.27;;;43.73;;
18084;SDS011;9169;44.492;11.372;2023-11-21T14:54:58;98.27;;;45.67;;
18084;SDS011;9169;44.492;11.372;2023-11-21T14:57:41;97.80;;;46.70;;
18084;SDS011;9169;44.492;11.372;2023-11-21T15:00:16;98.13;;;44.40;;
18084;SDS011;9169;44.492;11.372;2023-11-21T15:03:04;102.10;;;46.00;;
18084;SDS011;9169;44.492;11.372;2023-11-21T15:05:35;97.37;;;40.90;;